Home > Products > Valid Products > TAF

000
FTUS45 KRIW 222300
TAFJAC
TAF
KJAC 222321Z 2300/2324 22008KT P6SM SKC
     FM230100 VRB05KT P6SM SCT250
     FM230600 35006KT P6SM SCT080 BKN200
     FM231500 19007KT P6SM SCT080 BKN200
     FM231900 18011G21KT P6SM SCT080 BKN150
      AMD LTD TO CLD VIS AND WIND=



000
FTUS45 KRIW 222300
TAFRIW
TAF
KRIW 222321Z 2300/2324 19010KT P6SM SKC
     FM230400 30007KT P6SM SCT150 BKN250
     FM231200 25006KT P6SM SCT150 BKN200
     FM231800 25011KT P6SM SCT150 BKN200=



000
FTUS45 KRIW 222300
TAFCOD
TAF
KCOD 222321Z 2300/2324 26014G23KT P6SM SKC
     FM230300 24010G15KT P6SM SCT120 BKN250
     FM231800 13007KT P6SM SCT120 BKN200
     FM232300 25007KT P6SM SCT120 BKN200
      AMD LTD TO CLD VIS AND WIND=



000
FTUS45 KRIW 222300
TAFRKS
TAF
KRKS 222321Z 2300/2324 26010G15KT P6SM SCT100 BKN250
     FM231900 23018G28KT P6SM SCT100 BKN200=



000
FTUS45 KRIW 222300
TAFWRL
TAF
KWRL 222321Z 2300/2324 VRB05KT P6SM SKC
     FM230600 15006KT P6SM SCT120 BKN250
     FM231800 13010KT P6SM SCT120 BKN200=



000
FTUS45 KRIW 222300
TAFLND
TAF
KLND 222321Z 2300/2324 VRB04KT P6SM SCT150 BKN250
     FM231800 25010G18KT P6SM BKN200=



000
FTUS45 KRIW 222300
TAFCPR
TAF
KCPR 222321Z 2300/2324 24011G21KT P6SM SKC
     FM230600 22015KT P6SM SCT100 BKN250
     FM231200 22017G27KT P6SM SCT100 BKN200
     FM231800 22021G31KT P6SM SCT100 BKN200=



000
FTUS45 KRIW 222300
TAFBPI
TAF
KBPI 222321Z 2300/2324 VRB04KT P6SM SKC
     FM230600 VRB04KT P6SM SCT100 BKN250
     FM231800 25011G21KT P6SM BKN200=



000
FTUS45 KRIW 222000 AAA
TAFCOD
TAF AMD
KCOD 222016Z 2220/2318 25014G24KT P6SM SKC
     FM230300 20007KT P6SM SCT120 BKN250
      AMD LTD TO CLD VIS AND WIND=



000
FTUS45 KRIW 222000 AAA
TAFCOD
TAF AMD
KCOD 222016Z 2220/2318 25014G24KT P6SM SKC
     FM230300 20007KT P6SM SCT120 BKN250
      AMD LTD TO CLD VIS AND WIND=



000
FTUS45 KRIW 221700
TAFCOD
TAF
KCOD 221732Z 2218/2318 25014G24KT P6SM SKC
     FM222000 15007KT P6SM SKC
     FM230300 20007KT P6SM SCT120 BKN250
      AMD LTD TO CLD VIS AND WIND=



000
FTUS45 KRIW 221700
TAFLND
TAF
KLND 221732Z 2218/2318 VRB04KT P6SM SKC
     FM230000 25007KT P6SM SCT150 BKN250=



000
FTUS45 KRIW 221700
TAFCPR
TAF
KCPR 221732Z 2218/2318 22012G22KT P6SM SKC
     FM230000 23007KT P6SM SKC
     FM230600 22015KT P6SM SCT100 BKN250
     FM231200 22017G27KT P6SM SCT100 BKN200=



000
FTUS45 KRIW 221700
TAFWRL
TAF
KWRL 221732Z 2218/2318 VRB05KT P6SM SKC
     FM230600 15006KT P6SM SCT120 BKN250=



000
FTUS45 KRIW 221700
TAFRIW
TAF
KRIW 221732Z 2218/2318 VRB05KT P6SM SKC
     FM230400 30007KT P6SM SCT150 BKN250
     FM231200 25006KT P6SM SCT150 BKN200=



000
FTUS45 KRIW 221700
TAFBPI
TAF
KBPI 221732Z 2218/2318 VRB04KT P6SM SKC
     FM230600 VRB04KT P6SM SCT100 BKN250=



000
FTUS45 KRIW 221700
TAFJAC
TAF
KJAC 221732Z 2218/2318 19008KT P6SM SKC
     FM230100 VRB05KT P6SM SCT250
     FM230600 35006KT P6SM SCT080 BKN200
     FM231500 19007KT P6SM SCT080 BKN200
      AMD LTD TO CLD VIS AND WIND=



000
FTUS45 KRIW 221700
TAFRKS
TAF
KRKS 221732Z 2218/2318 24006KT P6SM SKC
     FM221900 25010G20KT P6SM SCT250
     FM230000 22007KT P6SM SCT100 BKN250=



000
FTUS45 KRIW 221700
TAFRKS
TAF
KRKS 221732Z 2218/2318 24006KT P6SM SKC
     FM221900 25010G20KT P6SM SCT250
     FM230000 22007KT P6SM SCT100 BKN250=



000
FTUS45 KRIW 221700
TAFJAC
TAF
KJAC 221732Z 2218/2318 19008KT P6SM SKC
     FM230100 VRB05KT P6SM SCT250
     FM230600 35006KT P6SM SCT080 BKN200
     FM231500 19007KT P6SM SCT080 BKN200
      AMD LTD TO CLD VIS AND WIND=



000
FTUS45 KRIW 221700
TAFWRL
TAF
KWRL 221732Z 2218/2318 VRB05KT P6SM SKC
     FM230600 15006KT P6SM SCT120 BKN250=



000
FTUS45 KRIW 221700
TAFLND
TAF
KLND 221732Z 2218/2318 VRB04KT P6SM SKC
     FM230000 25007KT P6SM SCT150 BKN250=



000
FTUS45 KRIW 221700
TAFBPI
TAF
KBPI 221732Z 2218/2318 VRB04KT P6SM SKC
     FM230600 VRB04KT P6SM SCT100 BKN250=



000
FTUS45 KRIW 221700
TAFRIW
TAF
KRIW 221732Z 2218/2318 VRB05KT P6SM SKC
     FM230400 30007KT P6SM SCT150 BKN250
     FM231200 25006KT P6SM SCT150 BKN200=



000
FTUS45 KRIW 221700
TAFCPR
TAF
KCPR 221732Z 2218/2318 22012G22KT P6SM SKC
     FM230000 23007KT P6SM SKC
     FM230600 22015KT P6SM SCT100 BKN250
     FM231200 22017G27KT P6SM SCT100 BKN200=



000
FTUS45 KRIW 221700
TAFCOD
TAF
KCOD 221732Z 2218/2318 25014G24KT P6SM SKC
     FM222000 15007KT P6SM SKC
     FM230300 20007KT P6SM SCT120 BKN250
      AMD LTD TO CLD VIS AND WIND=



000
FTUS45 KRIW 221600 AAA
TAFCPR
TAF AMD
KCPR 221607Z 2216/2312 22010G20KT P6SM SKC
     FM221800 25013G19KT P6SM SKC
     FM230000 23007KT P6SM SKC
     FM230600 22015KT P6SM SCT100 BKN250=



000
FTUS45 KRIW 221600 AAA
TAFCPR
TAF AMD
KCPR 221607Z 2216/2312 22010G20KT P6SM SKC
     FM221800 25013G19KT P6SM SKC
     FM230000 23007KT P6SM SKC
     FM230600 22015KT P6SM SCT100 BKN250=



000
FTUS45 KRIW 221600 AAA
TAFCOD
TAF AMD
KCOD 221605Z 2216/2312 25020G30KT P6SM SKC
     FM221800 15007KT P6SM SKC
     FM230300 20007KT P6SM SCT120 BKN250
     FM230900 21008KT P6SM SCT110 BKN200 WS020/26030KT
      AMD LTD TO CLD VIS AND WIND=



000
FTUS45 KRIW 221600 AAA
TAFCOD
TAF AMD
KCOD 221605Z 2216/2312 25020G30KT P6SM SKC
     FM221800 15007KT P6SM SKC
     FM230300 20007KT P6SM SCT120 BKN250
     FM230900 21008KT P6SM SCT110 BKN200 WS020/26030KT
      AMD LTD TO CLD VIS AND WIND=



000
FTUS45 KRIW 221100
TAFCPR
TAF
KCPR 221123Z 2212/2312 24008KT P6SM SKC
     FM221800 25013G19KT P6SM SKC
     FM230000 23007KT P6SM SKC
     FM230600 22015KT P6SM SCT100 BKN250=



000
FTUS45 KRIW 221100
TAFRIW
TAF
KRIW 221123Z 2212/2312 VRB06KT P6SM SKC
     FM230400 30007KT P6SM SCT150 BKN250=



000
FTUS45 KRIW 221100
TAFLND
TAF
KLND 221123Z 2212/2312 VRB05KT P6SM SKC
     FM230000 25007KT P6SM SCT150 BKN250=



000
FTUS45 KRIW 221100
TAFWRL
TAF
KWRL 221123Z 2212/2312 15007KT P6SM SKC
     FM230600 15006KT P6SM SCT120 BKN250=



000
FTUS45 KRIW 221100
TAFBPI
TAF
KBPI 221123Z 2212/2312 VRB04KT P6SM SKC
     FM230600 VRB04KT P6SM SCT100 BKN250=



000
FTUS45 KRIW 221100
TAFJAC
TAF
KJAC 221123Z 2212/2312 VRB04KT P6SM VCFG FEW005
     FM221600 19006KT P6SM FEW050
     FM221900 21010KT P6SM SCT250
     FM230100 VRB05KT P6SM SCT250
     FM230600 35006KT P6SM BKN070
      AMD LTD TO CLD VIS AND WIND=



000
FTUS45 KRIW 221100
TAFRKS
TAF
KRKS 221123Z 2212/2312 24007KT P6SM SKC
     FM221800 25010G20KT P6SM SCT250
     FM230000 22007KT P6SM SCT100 BKN250=



000
FTUS45 KRIW 221100
TAFCOD
TAF
KCOD 221123Z 2212/2312 VRB06KT P6SM SKC
     FM221800 15007KT P6SM SKC
     FM230300 20007KT P6SM SCT120 BKN250
     FM230900 21008KT P6SM SCT110 BKN200 WS020/26030KT
      AMD LTD TO CLD VIS AND WIND=



000
FTUS45 KRIW 220500
TAFRKS
TAF
KRKS 220521Z 2206/2306 24012KT P6SM VCSH SCT050 BKN100
     FM220900 23007KT P6SM SCT100 BKN250
     FM221200 23006KT P6SM SKC
     FM221800 25010G20KT P6SM SCT250
     FM230000 22007KT P6SM SCT100 BKN250=



000
FTUS45 KRIW 220500
TAFBPI
TAF
KBPI 220521Z 2206/2306 34007KT P6SM SCT060
     FM221600 VRB04KT P6SM SKC=



000
FTUS45 KRIW 220500
TAFRIW
TAF
KRIW 220521Z 2206/2306 31018G30KT P6SM SKC
     FM221200 28010KT P6SM SKC
     FM221500 VRB05KT P6SM SKC
     FM230400 30007KT P6SM SCT150 BKN250=



000
FTUS45 KRIW 220500
TAFWRL
TAF
KWRL 220521Z 2206/2306 VRB05KT P6SM SKC=



000
FTUS45 KRIW 220500
TAFLND
TAF
KLND 220521Z 2206/2306 VRB04KT P6SM SKC
     FM230000 25007KT P6SM SCT150 BKN250=



000
FTUS45 KRIW 220500
TAFJAC
TAF
KJAC 220521Z 2206/2306 20007KT P6SM SCT030 OVC045
     FM221200 VRB05KT P6SM SCT025 OVC040
     FM221900 21010KT P6SM FEW040 SCT250
     FM230100 VRB05KT P6SM SCT250
      AMD LTD TO CLD VIS AND WIND=



000
FTUS45 KRIW 220500
TAFCOD
TAF
KCOD 220521Z 2206/2306 24010G18KT P6SM SKC
     FM221800 15007KT P6SM SKC
     FM230300 20007KT P6SM SCT120 BKN250
      AMD LTD TO CLD VIS AND WIND=



000
FTUS45 KRIW 220500
TAFCPR
TAF
KCPR 220521Z 2206/2306 23010KT P6SM SCT120 BKN250
     FM221200 23007KT P6SM SKC
     FM221800 25013G19KT P6SM SKC
     FM230000 23007KT P6SM SKC=



000
FTUS45 KRIW 220500
TAFLND
TAF
KLND 220521Z 2206/2306 VRB04KT P6SM SKC
     FM230000 25007KT P6SM SCT150 BKN250=



000
FTUS45 KRIW 220500
TAFBPI
TAF
KBPI 220521Z 2206/2306 34007KT P6SM SCT060
     FM221600 VRB04KT P6SM SKC=



000
FTUS45 KRIW 220500
TAFWRL
TAF
KWRL 220521Z 2206/2306 VRB05KT P6SM SKC=



000
FTUS45 KRIW 220500
TAFRIW
TAF
KRIW 220521Z 2206/2306 31018G30KT P6SM SKC
     FM221200 28010KT P6SM SKC
     FM221500 VRB05KT P6SM SKC
     FM230400 30007KT P6SM SCT150 BKN250=



000
FTUS45 KRIW 220500
TAFRKS
TAF
KRKS 220521Z 2206/2306 24012KT P6SM VCSH SCT050 BKN100
     FM220900 23007KT P6SM SCT100 BKN250
     FM221200 23006KT P6SM SKC
     FM221800 25010G20KT P6SM SCT250
     FM230000 22007KT P6SM SCT100 BKN250=



000
FTUS45 KRIW 220500
TAFCOD
TAF
KCOD 220521Z 2206/2306 24010G18KT P6SM SKC
     FM221800 15007KT P6SM SKC
     FM230300 20007KT P6SM SCT120 BKN250
      AMD LTD TO CLD VIS AND WIND=



000
FTUS45 KRIW 220500
TAFJAC
TAF
KJAC 220521Z 2206/2306 20007KT P6SM SCT030 OVC045
     FM221200 VRB05KT P6SM SCT025 OVC040
     FM221900 21010KT P6SM FEW040 SCT250
     FM230100 VRB05KT P6SM SCT250
      AMD LTD TO CLD VIS AND WIND=



000
FTUS45 KRIW 220500
TAFCPR
TAF
KCPR 220521Z 2206/2306 23010KT P6SM SCT120 BKN250
     FM221200 23007KT P6SM SKC
     FM221800 25013G19KT P6SM SKC
     FM230000 23007KT P6SM SKC=



000
FTUS45 KRIW 220200 AAA
TAFRKS
TAF AMD
KRKS 220211Z 2202/2224 28014G20KT P6SM VCSH SCT070 BKN120
     FM220600 25007KT P6SM SCT100
     FM221800 25010G20KT P6SM BKN250=



000
FTUS45 KRIW 220200 AAA
TAFRKS
TAF AMD
KRKS 220211Z 2202/2224 28014G20KT P6SM VCSH SCT070 BKN120
     FM220600 25007KT P6SM SCT100
     FM221800 25010G20KT P6SM BKN250=



000
FTUS45 KRIW 212300
TAFLND
TAF
KLND 212325Z 2200/2224 30010KT P6SM SCT080 BKN150
     FM220200 29007KT P6SM SCT100
     FM221300 VRB04KT P6SM SCT070=



000
FTUS45 KRIW 212300
TAFLND
TAF
KLND 212325Z 2200/2224 30010KT P6SM SCT080 BKN150
     FM220200 29007KT P6SM SCT100
     FM221300 VRB04KT P6SM SCT070=



000
FTUS45 KRIW 212300
TAFJAC
TAF
KJAC 212325Z 2200/2224 21011G21KT P6SM SCT060
     FM220200 20007KT P6SM FEW070 SCT150
     FM221900 21010KT P6SM SCT040
      AMD LTD TO CLD VIS AND WIND=



000
FTUS45 KRIW 212300
TAFWRL
TAF
KWRL 212325Z 2200/2224 24014G20KT P6SM SCT080
     FM220200 33011KT P6SM SCT120
     FM220800 VRB05KT P6SM FEW150=



000
FTUS45 KRIW 212300
TAFJAC
TAF
KJAC 212325Z 2200/2224 21011G21KT P6SM SCT060
     FM220200 20007KT P6SM FEW070 SCT150
     FM221900 21010KT P6SM SCT040
      AMD LTD TO CLD VIS AND WIND=



000
FTUS45 KRIW 212300
TAFRKS
TAF
KRKS 212325Z 2200/2224 19008KT P6SM SCT050 BKN080
     FM220100 28015G25KT P6SM SCT070 BKN120
     FM220400 25007KT P6SM SCT100
     FM221800 25010G20KT P6SM BKN250=



000
FTUS45 KRIW 212300
TAFRIW
TAF
KRIW 212325Z 2200/2224 33010G20KT P6SM SCT080 BKN150
     FM220100 33020G30KT P6SM FEW150
     FM220300 32010G20KT P6SM FEW150
     FM221400 VRB04KT P6SM SKC
     FM221800 20007KT P6SM SCT070=



000
FTUS45 KRIW 212300
TAFCPR
TAF
KCPR 212325Z 2200/2224 23018G28KT P6SM VCSH SCT090 BKN150
     FM220300 24008KT P6SM SCT100
     FM221700 23014G24KT P6SM SCT070=



000
FTUS45 KRIW 212300
TAFRIW
TAF
KRIW 212325Z 2200/2224 33010G20KT P6SM SCT080 BKN150
     FM220100 33020G30KT P6SM FEW150
     FM220300 32010G20KT P6SM FEW150
     FM221400 VRB04KT P6SM SKC
     FM221800 20007KT P6SM SCT070=



000
FTUS45 KRIW 212300
TAFBPI
TAF
KBPI 212325Z 2200/2224 28010KT P6SM SCT050 BKN080
     FM220300 34007KT P6SM SCT080
     FM221500 VRB04KT P6SM BKN250=



000
FTUS45 KRIW 212300
TAFRKS
TAF
KRKS 212325Z 2200/2224 19008KT P6SM SCT050 BKN080
     FM220100 28015G25KT P6SM SCT070 BKN120
     FM220400 25007KT P6SM SCT100
     FM221800 25010G20KT P6SM BKN250=



000
FTUS45 KRIW 212300
TAFCPR
TAF
KCPR 212325Z 2200/2224 23018G28KT P6SM VCSH SCT090 BKN150
     FM220300 24008KT P6SM SCT100
     FM221700 23014G24KT P6SM SCT070=



000
FTUS45 KRIW 212300
TAFBPI
TAF
KBPI 212325Z 2200/2224 28010KT P6SM SCT050 BKN080
     FM220300 34007KT P6SM SCT080
     FM221500 VRB04KT P6SM BKN250=



000
FTUS45 KRIW 212300
TAFCOD
TAF
KCOD 212325Z 2200/2224 27017G27KT P6SM SCT110
     FM220200 26010KT P6SM SCT080 BKN130
     FM220500 23006KT P6SM SCT100
     FM221500 23012KT P6SM SCT060
     FM222100 10010KT P6SM SCT060
      AMD LTD TO CLD VIS AND WIND=



000
FTUS45 KRIW 212300
TAFWRL
TAF
KWRL 212325Z 2200/2224 24014G20KT P6SM SCT080
     FM220200 33011KT P6SM SCT120
     FM220800 VRB05KT P6SM FEW150=



000
FTUS45 KRIW 212300
TAFCOD
TAF
KCOD 212325Z 2200/2224 27017G27KT P6SM SCT110
     FM220200 26010KT P6SM SCT080 BKN130
     FM220500 23006KT P6SM SCT100
     FM221500 23012KT P6SM SCT060
     FM222100 10010KT P6SM SCT060
      AMD LTD TO CLD VIS AND WIND=



000
FTUS45 KRIW 212100 AAB
TAFRKS
TAF AMD
KRKS 212153Z 2122/2218 19012KT P6SM SCT050 BKN080
      TEMPO 2122/2123 VRB35G45KT 3SM TSRA OVC030CB
     FM212300 26018G28KT P6SM -SHRA SCT030 BKN050
     FM220100 28011G19KT P6SM SCT070 BKN120
     FM220400 25007KT P6SM SCT100=



000
FTUS45 KRIW 212100 AAB
TAFRKS
TAF AMD
KRKS 212153Z 2122/2218 19012KT P6SM SCT050 BKN080
      TEMPO 2122/2123 VRB35G45KT 3SM TSRA OVC030CB
     FM212300 26018G28KT P6SM -SHRA SCT030 BKN050
     FM220100 28011G19KT P6SM SCT070 BKN120
     FM220400 25007KT P6SM SCT100=



000
FTUS45 KRIW 212100 AAC
TAFLND
TAF AMD
KLND 212144Z 2122/2218 VRB06KT P6SM VCSH SCT070 BKN110
      TEMPO 2122/2123 26035G45KT 5SM -TSRA BKN050CB
     FM220200 29007KT P6SM SCT100
     FM221300 VRB04KT P6SM SCT070=



000
FTUS45 KRIW 212100 AAC
TAFLND
TAF AMD
KLND 212144Z 2122/2218 VRB06KT P6SM VCSH SCT070 BKN110
      TEMPO 2122/2123 26035G45KT 5SM -TSRA BKN050CB
     FM220200 29007KT P6SM SCT100
     FM221300 VRB04KT P6SM SCT070=



000
FTUS45 KRIW 212100 AAA
TAFJAC
TAF AMD
KJAC 212143Z 2122/2218 19011G18KT P6SM VCSH SCT030 BKN050
     FM220200 20007KT P6SM FEW070 SCT150
      AMD LTD TO CLD VIS AND WIND=



000
FTUS45 KRIW 212100 AAA
TAFJAC
TAF AMD
KJAC 212143Z 2122/2218 19011G18KT P6SM VCSH SCT030 BKN050
     FM220200 20007KT P6SM FEW070 SCT150
      AMD LTD TO CLD VIS AND WIND=



000
FTUS45 KRIW 212100 AAB
TAFLND
TAF AMD
KLND 212113Z 2121/2218 26010G20KT P6SM VCSH SCT070 BKN080
      TEMPO 2121/2122 26035G45KT 5SM -TSRA BKN050CB
     FM220200 29007KT P6SM SCT100
     FM221300 VRB04KT P6SM SCT070=



000
FTUS45 KRIW 212000 AAA
TAFRKS
TAF AMD
KRKS 212016Z 2120/2218 22016G24KT P6SM SCT040 BKN120
     FM212100 26018G28KT P6SM -SHRA SCT030 BKN050
     FM220100 28011G19KT P6SM SCT070 BKN120
     FM220400 25007KT P6SM SCT100=



000
FTUS45 KRIW 212000 AAA
TAFLND
TAF AMD
KLND 212001Z 2120/2218 26016G24KT P6SM VCSH SCT070 BKN080
      TEMPO 2120/2121 26035G45KT 5SM -TSRA BKN050CB
     FM220200 29007KT P6SM SCT100
     FM221300 VRB04KT P6SM SCT070=



000
FTUS45 KRIW 212000 AAA
TAFLND
TAF AMD
KLND 212001Z 2120/2218 26016G24KT P6SM VCSH SCT070 BKN080
      TEMPO 2120/2121 26035G45KT 5SM -TSRA BKN050CB
     FM220200 29007KT P6SM SCT100
     FM221300 VRB04KT P6SM SCT070=



000
FTUS45 KRIW 212000 AAA
TAFRIW
TAF AMD
KRIW 212000Z 2120/2218 22018G25KT P6SM SCT070 BKN120
      TEMPO 2120/2121 26030G40KT -SHRA BKN080
     FM220200 30016G26KT P6SM SCT100
     FM220700 30009KT P6SM FEW150
     FM221400 VRB04KT P6SM SKC=



000
FTUS45 KRIW 212000 AAA
TAFRIW
TAF AMD
KRIW 212000Z 2120/2218 22018G25KT P6SM SCT070 BKN120
      TEMPO 2120/2121 26030G40KT -SHRA BKN080
     FM220200 30016G26KT P6SM SCT100
     FM220700 30009KT P6SM FEW150
     FM221400 VRB04KT P6SM SKC=



000
FTUS45 KRIW 211800 AAA
TAFBPI
TAF AMD
KBPI 211827Z 2118/2218 VRB04KT P6SM SCT050 BKN070
      TEMPO 2118/2119 VRB20G30KT 4SM -TSRA SCT020CB BKN040
     FM211900 25015G25KT P6SM SCT050 BKN070
     FM212300 31013KT P6SM SCT050 BKN080
     FM220300 34007KT P6SM SCT080
     FM221500 VRB04KT P6SM BKN250=



000
FTUS45 KRIW 211800 AAA
TAFWRL
TAF AMD
KWRL 211805Z 2118/2218 21013G21KT P6SM SCT110 BKN130
     FM220300 35011KT P6SM SCT120
     FM220800 VRB05KT P6SM FEW150=



000
FTUS45 KRIW 211700
TAFCPR
TAF
KCPR 211720Z 2118/2218 22024G34KT P6SM SCT090 BKN150
     FM212300 24013G21KT P6SM SCT090 BKN150
     FM220500 24008KT P6SM SCT100
     FM221700 23014G24KT P6SM SCT070=



000
FTUS45 KRIW 211700
TAFBPI
TAF
KBPI 211720Z 2118/2218 VRB04KT P6SM SCT050 BKN070
      TEMPO 2118/2119 5SM -SHRA SCT028 BKN050
     FM211900 25015G25KT P6SM SCT050 BKN070
     FM212300 31013KT P6SM SCT050 BKN080
     FM220300 34007KT P6SM SCT080
     FM221500 VRB04KT P6SM BKN250=



000
FTUS45 KRIW 211700
TAFWRL
TAF
KWRL 211720Z 2118/2218 18008KT P6SM SCT110 BKN130
     FM212000 21013G21KT P6SM SCT080 BKN130
     FM220300 35011KT P6SM SCT120
     FM220800 VRB05KT P6SM FEW150=



000
FTUS45 KRIW 211700
TAFCOD
TAF
KCOD 211720Z 2118/2218 24007KT P6SM SCT100 SCT150
     FM211900 24015G22KT P6SM VCSH SCT040 BKN080
     FM220100 26010KT P6SM SCT080 BKN130
     FM220500 23006KT P6SM SCT100
     FM221500 23012KT P6SM SCT060
      AMD LTD TO CLD VIS AND WIND=



000
FTUS45 KRIW 211700
TAFJAC
TAF
KJAC 211720Z 2118/2218 VRB04KT P6SM SCT040 BKN050
     FM211900 20013G21KT P6SM SCT020 BKN040
      TEMPO 2119/2121 6SM -SHRA OVC020
     FM212100 24011G18KT P6SM VCSH SCT030 BKN050
     FM220200 20007KT P6SM FEW070 SCT150
      AMD LTD TO CLD VIS AND WIND=



000
FTUS45 KRIW 211700
TAFRIW
TAF
KRIW 211720Z 2118/2218 VRB04KT P6SM VCSH BKN070
     FM211900 24018G25KT P6SM SCT070 BKN120
     FM220200 30016G26KT P6SM SCT100
     FM220700 30009KT P6SM FEW150
     FM221400 VRB04KT P6SM SKC=



000
FTUS45 KRIW 211700
TAFRKS
TAF
KRKS 211720Z 2118/2218 22016G24KT P6SM SCT040 BKN120
     FM211900 26018G28KT P6SM -SHRA SCT030 BKN050
     FM220100 28011G19KT P6SM SCT070 BKN120
     FM220400 25007KT P6SM SCT100=



000
FTUS45 KRIW 211700
TAFLND
TAF
KLND 211720Z 2118/2218 24016G24KT P6SM VCSH SCT050 BKN080
     FM220200 29007KT P6SM SCT100
     FM221300 VRB04KT P6SM SCT070=



000
FTUS45 KRIW 211500 AAA
TAFJAC
TAF AMD
KJAC 211535Z 2116/2212 19010KT P6SM TSRA SCT035CB OVC050
      TEMPO 2116/2117 VRB20G30KT OVC030CB
     FM211700 20013G21KT 6SM -SHRA SCT020 BKN035
     FM212100 24011G18KT P6SM VCSH SCT030 BKN050
     FM220200 20007KT P6SM FEW070 SCT150
      AMD LTD TO CLD VIS AND WIND=



000
FTUS45 KRIW 211500 AAA
TAFJAC
TAF AMD
KJAC 211535Z 2116/2212 19010KT P6SM TSRA SCT035CB OVC050
      TEMPO 2116/2117 VRB20G30KT OVC030CB
     FM211700 20013G21KT 6SM -SHRA SCT020 BKN035
     FM212100 24011G18KT P6SM VCSH SCT030 BKN050
     FM220200 20007KT P6SM FEW070 SCT150
      AMD LTD TO CLD VIS AND WIND=



000
FTUS45 KRIW 211400 AAA
TAFRKS
TAF AMD
KRKS 211444Z 2115/2212 VRB06KT P6SM VCSH SCT035 BKN060
     FM211900 26018G28KT P6SM -SHRA SCT030 BKN050
     FM220100 28011G19KT P6SM SCT070 BKN120
     FM220400 25007KT P6SM SCT100=



000
FTUS45 KRIW 211100
TAFLND
TAF
KLND 211134Z 2112/2212 VRB06KT P6SM SCT090 WS020/23030KT
     FM211700 24016G24KT P6SM VCSH SCT050 BKN080
     FM220200 29007KT P6SM SCT100=



000
FTUS45 KRIW 211100
TAFWRL
TAF
KWRL 211134Z 2112/2212 VRB06KT P6SM FEW110
     FM211700 18008KT P6SM SCT080 BKN130
     FM212000 21013G21KT P6SM SCT080 BKN130
     FM220300 35011KT P6SM SCT120
     FM220800 VRB05KT P6SM FEW150=



000
FTUS45 KRIW 211100
TAFCPR
TAF
KCPR 211134Z 2112/2212 23009KT P6SM FEW120
     FM211400 22014G24KT P6SM SCT120
     FM211700 22024G34KT P6SM SCT090 BKN150
     FM212300 24013G21KT P6SM SCT090 BKN150
     FM220500 24008KT P6SM SCT100=



000
FTUS45 KRIW 211100
TAFRKS
TAF
KRKS 211134Z 2112/2212 21015KT P6SM SCT060 BKN090
     FM211430 22017G25KT P6SM VCSH SCT035 BKN060
     FM211900 26018G28KT P6SM -SHRA SCT030 BKN050
     FM220100 28011G19KT P6SM SCT070 BKN120
     FM220400 25007KT P6SM SCT100=



000
FTUS45 KRIW 211100
TAFCOD
TAF
KCOD 211134Z 2112/2212 19008KT P6SM SCT090 SCT150
     FM211600 22010G17KT P6SM VCSH SCT050 BKN080
     FM211900 24012G18KT P6SM VCSH SCT070 BKN110
     FM212200 25017G25KT P6SM SCT110
     FM220500 23006KT P6SM SCT150
      AMD LTD TO CLD VIS AND WIND=



000
FTUS45 KRIW 211100
TAFWRL
TAF
KWRL 211134Z 2112/2212 VRB06KT P6SM FEW110
     FM211700 18008KT P6SM SCT080 BKN130
     FM212000 21013G21KT P6SM SCT080 BKN130
     FM220300 35011KT P6SM SCT120
     FM220800 VRB05KT P6SM FEW150=



000
FTUS45 KRIW 211100
TAFCOD
TAF
KCOD 211134Z 2112/2212 19008KT P6SM SCT090 SCT150
     FM211600 22010G17KT P6SM VCSH SCT050 BKN080
     FM211900 24012G18KT P6SM VCSH SCT070 BKN110
     FM212200 25017G25KT P6SM SCT110
     FM220500 23006KT P6SM SCT150
      AMD LTD TO CLD VIS AND WIND=



000
FTUS45 KRIW 211100
TAFRKS
TAF
KRKS 211134Z 2112/2212 21015KT P6SM SCT060 BKN090
     FM211430 22017G25KT P6SM VCSH SCT035 BKN060
     FM211900 26018G28KT P6SM -SHRA SCT030 BKN050
     FM220100 28011G19KT P6SM SCT070 BKN120
     FM220400 25007KT P6SM SCT100=



000
FTUS45 KRIW 211100
TAFJAC
TAF
KJAC 211134Z 2112/2212 VRB06KT P6SM VCSH BKN070
     FM211400 17010KT P6SM -SHRA SCT035 OVC050
     FM211630 20013G21KT 6SM -SHRA SCT020 BKN035
     FM212100 24011G18KT P6SM VCSH SCT030 BKN050
     FM220200 20007KT P6SM FEW070 SCT150
      AMD LTD TO CLD VIS AND WIND=



000
FTUS45 KRIW 211100
TAFLND
TAF
KLND 211134Z 2112/2212 VRB06KT P6SM SCT090 WS020/23030KT
     FM211700 24016G24KT P6SM VCSH SCT050 BKN080
     FM220200 29007KT P6SM SCT100=



000
FTUS45 KRIW 211100
TAFRIW
TAF
KRIW 211134Z 2112/2212 VRB06KT P6SM FEW090 SCT150
     FM211900 24018G25KT P6SM SCT070 BKN120
     FM220200 30016G26KT P6SM SCT100
     FM220700 30009KT P6SM FEW150=



000
FTUS45 KRIW 211100
TAFRIW
TAF
KRIW 211134Z 2112/2212 VRB06KT P6SM FEW090 SCT150
     FM211900 24018G25KT P6SM SCT070 BKN120
     FM220200 30016G26KT P6SM SCT100
     FM220700 30009KT P6SM FEW150=



000
FTUS45 KRIW 211100
TAFCPR
TAF
KCPR 211134Z 2112/2212 23009KT P6SM FEW120
     FM211400 22014G24KT P6SM SCT120
     FM211700 22024G34KT P6SM SCT090 BKN150
     FM212300 24013G21KT P6SM SCT090 BKN150
     FM220500 24008KT P6SM SCT100=



000
FTUS45 KRIW 211100
TAFBPI
TAF
KBPI 211134Z 2112/2212 VRB06KT P6SM SCT070 BKN120
     FM211600 25012KT P6SM VCSH SCT045 BKN080
     FM211800 25015G25KT P6SM VCSH SCT030 BKN050
     FM212300 31013KT P6SM SCT050 BKN080
     FM220300 34007KT P6SM SCT080=



000
FTUS45 KRIW 211100
TAFBPI
TAF
KBPI 211134Z 2112/2212 VRB06KT P6SM SCT070 BKN120
     FM211600 25012KT P6SM VCSH SCT045 BKN080
     FM211800 25015G25KT P6SM VCSH SCT030 BKN050
     FM212300 31013KT P6SM SCT050 BKN080
     FM220300 34007KT P6SM SCT080=



000
FTUS45 KRIW 211100
TAFJAC
TAF
KJAC 211134Z 2112/2212 VRB06KT P6SM VCSH BKN070
     FM211400 17010KT P6SM -SHRA SCT035 OVC050
     FM211630 20013G21KT 6SM -SHRA SCT020 BKN035
     FM212100 24011G18KT P6SM VCSH SCT030 BKN050
     FM220200 20007KT P6SM FEW070 SCT150
      AMD LTD TO CLD VIS AND WIND=



000
FTUS45 KRIW 210500
TAFWRL
TAF
KWRL 210522Z 2106/2206 16006KT P6SM FEW150
     FM211700 18008KT P6SM SCT080 BKN130
     FM212000 21013G21KT P6SM SCT080 BKN130
     FM220300 35011KT P6SM SCT120=



000
FTUS45 KRIW 210500
TAFRIW
TAF
KRIW 210522Z 2106/2206 25008KT P6SM SCT150
     FM211900 24018G25KT P6SM SCT070 BKN120
     FM220200 30016G26KT P6SM SCT100=



000
FTUS45 KRIW 210500
TAFBPI
TAF
KBPI 210522Z 2106/2206 VRB06KT P6SM SCT060 BKN130
     FM211600 25012KT P6SM VCSH SCT045 BKN080
     FM211800 25015G25KT P6SM VCSH SCT030 BKN050
     FM212300 31013KT P6SM SCT050 BKN080
     FM220300 34007KT P6SM SCT080=



000
FTUS45 KRIW 210500
TAFRKS
TAF
KRKS 210522Z 2106/2206 17010KT P6SM SCT080 BKN150
     FM211600 22016G24KT P6SM SCT040 BKN070
     FM211900 26018G28KT P6SM -SHRA SCT030 BKN050
     FM220100 28011G19KT P6SM SCT070 BKN120
     FM220400 25007KT P6SM SCT100=



000
FTUS45 KRIW 210500
TAFCOD
TAF
KCOD 210522Z 2106/2206 22007KT P6SM SCT080 SCT150
     FM211900 24015G22KT P6SM VCSH SCT040 BKN080
     FM220100 26010KT P6SM SCT080 BKN130
     FM220500 23006KT P6SM SCT100
      AMD LTD TO CLD VIS AND WIND=



000
FTUS45 KRIW 210500
TAFLND
TAF
KLND 210522Z 2106/2206 24010KT P6SM SCT150
     FM211700 24016G24KT P6SM VCSH SCT050 BKN080
     FM220200 29007KT P6SM SCT100=



000
FTUS45 KRIW 210500
TAFJAC
TAF
KJAC 210522Z 2106/2206 VRB06KT P6SM SCT070 BKN140
     FM211630 20013G21KT 6SM -SHRA SCT020 BKN035
     FM212100 24011G18KT P6SM VCSH SCT030 BKN050
     FM220200 20007KT P6SM FEW070 SCT150
      AMD LTD TO CLD VIS AND WIND=



000
FTUS45 KRIW 210500
TAFCPR
TAF
KCPR 210522Z 2106/2206 23009KT P6SM FEW200
     FM211400 22014G24KT P6SM BKN200
     FM211700 22024G34KT P6SM SCT090 BKN150
     FM212300 24013G21KT P6SM SCT090 BKN150
     FM220500 24008KT P6SM SCT100=



000
FTUS45 KRIW 202300
TAFBPI
TAF
KBPI 202320Z 2100/2124 22007KT P6SM FEW100
     FM210700 VRB06KT P6SM SCT060 BKN130
     FM211300 16007KT P6SM VCSH SCT035 BKN060
     FM211800 22015G24KT P6SM VCSH BKN030 OVC050
     FM212300 27013KT P6SM VCSH SCT030 BKN060=



000
FTUS45 KRIW 202300
TAFCOD
TAF
KCOD 202320Z 2100/2124 14008KT P6SM SKC
     FM210200 22009KT P6SM FEW150
     FM211000 22007KT P6SM SCT070 BKN130
     FM211500 21007KT P6SM VCSH SCT040 BKN080
     FM212200 25015G22KT P6SM VCSH SCT040 BKN080
      AMD LTD TO CLD VIS AND WIND=



000
FTUS45 KRIW 202300
TAFJAC
TAF
KJAC 202320Z 2100/2124 21013KT P6SM FEW100
     FM210200 VRB05KT P6SM FEW070 SCT140
     FM211200 18010KT P6SM VCSH SCT030 BKN060
     FM211700 18012G18KT 5SM SHRA SCT010 OVC030
     FM212200 24012KT P6SM VCSH SCT030 BKN050
      AMD LTD TO CLD VIS AND WIND=



000
FTUS45 KRIW 202300
TAFWRL
TAF
KWRL 202320Z 2100/2124 VRB06KT P6SM SKC
     FM211000 VRB06KT P6SM SCT140
     FM211500 16008KT P6SM SCT080 BKN130
     FM212100 21015KT P6SM SCT080 BKN130=



000
FTUS45 KRIW 202300
TAFCPR
TAF
KCPR 202320Z 2100/2124 22015G23KT P6SM SKC
     FM210200 22012KT P6SM FEW150
     FM211600 22022G30KT P6SM SCT070 BKN100=



000
FTUS45 KRIW 202300
TAFRIW
TAF
KRIW 202320Z 2100/2124 VRB06KT P6SM SKC
     FM210400 23008KT P6SM FEW150
     FM211400 24013KT P6SM SCT070 BKN120
     FM212000 24018G25KT P6SM SCT070 BKN120=



000
FTUS45 KRIW 202300
TAFRKS
TAF
KRKS 202320Z 2100/2124 21007KT P6SM FEW090
     FM210800 20012KT P6SM SCT080 BKN150
     FM211500 21016G24KT P6SM SCT040 BKN070
     FM212100 29020G28KT P6SM -SHRA OVC030=



000
FTUS45 KRIW 202300
TAFLND
TAF
KLND 202320Z 2100/2124 VRB06KT P6SM SKC
     FM210300 23009KT P6SM FEW150
     FM210900 21012KT P6SM SCT080 BKN150
     FM211600 22014G21KT P6SM VCSH SCT050 BKN080=



000
FTUS45 KRIW 201700
TAFCPR
TAF
KCPR 201720Z 2018/2118 22015G23KT P6SM SKC
     FM210200 22012KT P6SM FEW150
     FM211600 22022G30KT P6SM SCT070 BKN100=



000
FTUS45 KRIW 201700
TAFLND
TAF
KLND 201720Z 2018/2118 VRB06KT P6SM SKC
     FM210300 23009KT P6SM FEW150
     FM210900 21012KT P6SM SCT080 BKN150
     FM211600 22014G21KT P6SM VCSH SCT050 BKN080=



000
FTUS45 KRIW 201700
TAFJAC
TAF
KJAC 201720Z 2018/2118 21013KT P6SM FEW100
     FM210200 VRB05KT P6SM FEW070 SCT140
     FM211200 18010KT P6SM VCSH SCT030 BKN060
      AMD LTD TO CLD VIS AND WIND=



000
FTUS45 KRIW 201700
TAFRKS
TAF
KRKS 201720Z 2018/2118 21007KT P6SM FEW090
     FM210800 20012KT P6SM SCT080 BKN150
     FM211500 21016G24KT P6SM SCT040 BKN070=



000
FTUS45 KRIW 201700
TAFWRL
TAF
KWRL 201720Z 2018/2118 VRB06KT P6SM SKC
     FM211000 VRB06KT P6SM SCT140
     FM211500 16008KT P6SM SCT080 BKN130=



000
FTUS45 KRIW 201700
TAFRIW
TAF
KRIW 201720Z 2018/2118 VRB06KT P6SM SKC
     FM210400 23008KT P6SM FEW150
     FM211400 24013KT P6SM SCT070 BKN120=



000
FTUS45 KRIW 201700
TAFBPI
TAF
KBPI 201720Z 2018/2118 VRB06KT P6SM SKC
     FM202000 22007KT P6SM FEW100
     FM210700 VRB06KT P6SM SCT060 BKN130
     FM211300 16007KT P6SM VCSH SCT035 BKN060=



000
FTUS45 KRIW 201700
TAFCOD
TAF
KCOD 201720Z 2018/2118 14008KT P6SM SKC
     FM210200 22009KT P6SM FEW150
     FM211000 22007KT P6SM SCT070 BKN130
     FM211500 21007KT P6SM VCSH SCT040 BKN080
      AMD LTD TO CLD VIS AND WIND=



000
FTUS45 KRIW 201100
TAFRIW
TAF
KRIW 201123Z 2012/2112 VRB06KT P6SM SKC
     FM210400 31008KT P6SM FEW150=



000
FTUS45 KRIW 201100
TAFWRL
TAF
KWRL 201123Z 2012/2112 VRB06KT P6SM SKC=



000
FTUS45 KRIW 201100
TAFCPR
TAF
KCPR 201123Z 2012/2112 22010KT P6SM SKC
     FM201600 22013G21KT P6SM SKC
     FM202300 22009KT P6SM FEW150=



000
FTUS45 KRIW 201100
TAFBPI
TAF
KBPI 201123Z 2012/2112 VRB06KT P6SM SKC
     FM202000 22007KT P6SM FEW100
     FM210100 VRB06KT P6SM FEW100=



000
FTUS45 KRIW 201100
TAFJAC
TAF
KJAC 201123Z 2012/2112 VRB05KT P6SM SKC
     FM201900 21009KT P6SM FEW100
     FM210100 VRB05KT P6SM FEW150
      AMD LTD TO CLD VIS AND WIND=



000
FTUS45 KRIW 201100
TAFRKS
TAF
KRKS 201123Z 2012/2112 21007KT P6SM FEW090=



000
FTUS45 KRIW 201100
TAFCOD
TAF
KCOD 201123Z 2012/2112 21008KT P6SM SKC
     FM201800 14008KT P6SM SKC
     FM210200 22009KT P6SM FEW150
      AMD LTD TO CLD VIS AND WIND=



000
FTUS45 KRIW 201100
TAFLND
TAF
KLND 201123Z 2012/2112 VRB06KT P6SM SKC
     FM210300 23009KT P6SM FEW150=



000
FTUS45 KRIW 200500
TAFCPR
TAF
KCPR 200520Z 2006/2106 22007KT P6SM SKC
     FM201600 22010G16KT P6SM SKC
     FM202300 22008KT P6SM FEW150=



000
FTUS45 KRIW 200500
TAFBPI
TAF
KBPI 200520Z 2006/2106 VRB06KT P6SM SKC=



000
FTUS45 KRIW 200500
TAFLND
TAF
KLND 200520Z 2006/2106 VRB06KT P6SM SKC=



000
FTUS45 KRIW 200500
TAFWRL
TAF
KWRL 200520Z 2006/2106 VRB06KT P6SM SKC=



000
FTUS45 KRIW 200500
TAFRIW
TAF
KRIW 200520Z 2006/2106 VRB06KT P6SM SKC=



000
FTUS45 KRIW 200500
TAFCOD
TAF
KCOD 200520Z 2006/2106 VRB06KT P6SM SKC
     FM201800 14008KT P6SM SKC
     FM210000 VRB05KT P6SM FEW150
      AMD LTD TO CLD VIS AND WIND=



000
FTUS45 KRIW 200500
TAFJAC
TAF
KJAC 200520Z 2006/2106 VRB06KT P6SM SKC
      AMD LTD TO CLD VIS AND WIND=



000
FTUS45 KRIW 200500
TAFRKS
TAF
KRKS 200520Z 2006/2106 23007KT P6SM SKC=



    US Dept of Commerce
    National Oceanic and Atmospheric Administration
    National Weather Service
    1325 East West Highway
    Silver Spring, MD 20910
    Page Author: NWS Internet Services Team
Disclaimer
Information Quality
Credits
Glossary
Privacy Policy
Freedom of Information Act (FOIA)
About Us
Career Opportunities